createdAt,value
2023-03-18T00:00:10.989Z,11.40
2023-03-18T00:00:24.024Z,10.70
2023-03-18T00:00:35.753Z,11.10
2023-03-18T00:00:46.541Z,12.00
2023-03-18T00:00:59.505Z,11.60
2023-03-18T00:01:11.252Z,11.20
2023-03-18T00:01:22.051Z,10.80
2023-03-18T00:01:34.503Z,11.40
2023-03-18T00:01:46.254Z,12.60
2023-03-18T00:01:58.033Z,14.20
2023-03-18T00:02:09.840Z,14.90
2023-03-18T00:02:22.328Z,16.00
2023-03-18T00:02:33.131Z,16.40
2023-03-18T00:02:44.002Z,16.20
2023-03-18T00:02:56.521Z,15.60
2023-03-18T00:03:08.256Z,15.80
2023-03-18T00:03:19.045Z,15.80
2023-03-18T00:03:30.811Z,15.30
2023-03-18T00:03:41.612Z,15.00
2023-03-18T00:03:53.332Z,14.10
2023-03-18T00:04:06.364Z,13.10
2023-03-18T00:04:18.166Z,12.40
2023-03-18T00:04:28.908Z,12.90
2023-03-18T00:04:40.655Z,13.90
2023-03-18T00:04:52.393Z,13.40
2023-03-18T00:05:04.612Z,13.70
2023-03-18T00:05:15.383Z,13.30
2023-03-18T00:05:27.722Z,11.90
2023-03-18T00:05:38.512Z,10.00
2023-03-18T00:05:51.723Z,9.80
2023-03-18T00:06:05.995Z,10.80
2023-03-18T00:06:16.806Z,9.70
2023-03-18T00:06:28.552Z,8.60
2023-03-18T00:06:40.247Z,8.70
2023-03-18T00:06:52.476Z,8.20
2023-03-18T00:07:03.493Z,7.30
2023-03-18T00:07:14.442Z,7.00
2023-03-18T00:07:26.284Z,7.00
2023-03-18T00:07:37.073Z,7.20
2023-03-18T00:07:47.862Z,7.00
2023-03-18T00:08:00.330Z,6.90
2023-03-18T00:08:11.091Z,7.40
2023-03-18T00:08:21.912Z,8.10
2023-03-18T00:08:32.677Z,7.90
2023-03-18T00:08:45.904Z,8.00
2023-03-18T00:08:57.614Z,7.80
2023-03-18T00:09:09.927Z,8.00
2023-03-18T00:09:22.186Z,8.00
2023-03-18T00:09:34.185Z,8.80
2023-03-18T00:09:46.165Z,8.90
2023-03-18T00:09:56.974Z,8.40
2023-03-18T00:10:09.694Z,7.50
2023-03-18T00:10:22.942Z,7.80
2023-03-18T00:10:36.174Z,8.20
2023-03-18T00:10:47.876Z,8.00
2023-03-18T00:10:59.677Z,8.00
2023-03-18T00:11:11.421Z,8.10
2023-03-18T00:11:23.852Z,8.60
2023-03-18T00:11:35.608Z,7.70
2023-03-18T00:11:46.396Z,7.60
2023-03-18T00:11:58.709Z,7.80
2023-03-18T00:12:09.475Z,8.10
2023-03-18T00:12:20.377Z,8.30
2023-03-18T00:12:32.127Z,8.10
2023-03-18T00:12:43.923Z,8.40
2023-03-18T00:12:56.168Z,8.20
2023-03-18T00:13:07.949Z,8.60
2023-03-18T00:13:19.675Z,8.10
2023-03-18T00:13:31.475Z,8.00
2023-03-18T00:13:42.275Z,8.50
2023-03-18T00:13:54.033Z,8.70
2023-03-18T00:14:04.858Z,8.40
2023-03-18T00:14:17.317Z,8.30
2023-03-18T00:14:29.066Z,8.40
2023-03-18T00:14:40.744Z,8.50
2023-03-18T00:14:51.543Z,8.70
2023-03-18T00:15:05.271Z,8.40
2023-03-18T00:15:16.067Z,7.70
2023-03-18T00:15:26.824Z,7.30
2023-03-18T00:15:37.695Z,7.50
2023-03-18T00:15:49.441Z,8.00
2023-03-18T00:16:00.212Z,8.10
2023-03-18T00:16:11.030Z,8.20
2023-03-18T00:16:25.425Z,8.00
2023-03-18T00:16:37.227Z,8.00
2023-03-18T00:16:48.956Z,8.30
2023-03-18T00:17:00.718Z,7.50
2023-03-18T00:17:13.506Z,7.10
2023-03-18T00:17:25.932Z,7.20
2023-03-18T00:17:36.760Z,7.00
2023-03-18T00:17:49.243Z,6.60
2023-03-18T00:18:01.743Z,6.00
2023-03-18T00:18:12.547Z,6.50
2023-03-18T00:18:23.337Z,6.50
2023-03-18T00:18:34.175Z,6.30
2023-03-18T00:18:44.971Z,6.10
2023-03-18T00:18:55.758Z,6.50
2023-03-18T00:19:06.517Z,6.70
2023-03-18T00:19:18.224Z,6.70
2023-03-18T00:19:30.034Z,6.30
2023-03-18T00:19:40.785Z,6.60
2023-03-18T00:19:51.541Z,7.00
2023-03-18T00:20:02.604Z,7.00
2023-03-18T00:20:15.800Z,7.30
2023-03-18T00:20:29.700Z,7.40
2023-03-18T00:20:42.020Z,7.20
2023-03-18T00:20:55.236Z,6.60
2023-03-18T00:21:07.689Z,6.90
2023-03-18T00:21:20.171Z,6.70
2023-03-18T00:21:30.981Z,6.60
2023-03-18T00:21:43.195Z,6.50
2023-03-18T00:21:53.940Z,6.70
2023-03-18T00:22:04.720Z,6.10
2023-03-18T00:22:15.524Z,6.00
2023-03-18T00:22:27.218Z,5.80
2023-03-18T00:22:38.000Z,6.30
2023-03-18T00:22:49.770Z,6.70
2023-03-18T00:23:00.590Z,6.90
2023-03-18T00:23:12.834Z,6.80
2023-03-18T00:23:25.061Z,6.50
2023-03-18T00:23:35.857Z,6.60
2023-03-18T00:23:49.068Z,6.70
2023-03-18T00:23:59.876Z,6.30
2023-03-18T00:24:10.644Z,6.40
2023-03-18T00:24:22.418Z,6.20
2023-03-18T00:24:33.220Z,6.70
2023-03-18T00:24:46.520Z,6.40
2023-03-18T00:24:58.247Z,6.40
2023-03-18T00:25:09.981Z,6.60
2023-03-18T00:25:21.719Z,6.70
2023-03-18T00:25:33.461Z,6.90
2023-03-18T00:25:44.206Z,6.70
2023-03-18T00:25:55.949Z,6.40
2023-03-18T00:26:08.402Z,6.40
2023-03-18T00:26:19.418Z,6.90
2023-03-18T00:26:31.907Z,7.00
2023-03-18T00:26:43.802Z,7.00
2023-03-18T00:26:54.633Z,6.80
2023-03-18T00:27:06.846Z,6.80
2023-03-18T00:27:19.118Z,6.60
2023-03-18T00:27:30.873Z,6.00
2023-03-18T00:27:41.662Z,5.80
2023-03-18T00:27:54.149Z,5.50
2023-03-18T00:28:04.962Z,6.00
2023-03-18T00:28:18.425Z,5.80
2023-03-18T00:28:31.094Z,6.20
2023-03-18T00:28:43.327Z,6.00
2023-03-18T00:28:55.593Z,6.10
2023-03-18T00:29:07.331Z,6.10
2023-03-18T00:29:19.090Z,5.60
2023-03-18T00:29:31.302Z,5.30
2023-03-18T00:29:43.820Z,5.20
2023-03-18T00:29:55.651Z,5.90
2023-03-18T00:30:08.374Z,6.60
2023-03-18T00:30:19.140Z,6.60
2023-03-18T00:30:31.196Z,6.50
2023-03-18T00:30:44.102Z,6.70
2023-03-18T00:30:56.608Z,7.00
2023-03-18T00:31:10.170Z,7.10
2023-03-18T00:31:23.485Z,7.10
2023-03-18T00:31:34.384Z,6.70
2023-03-18T00:31:45.276Z,6.60
2023-03-18T00:31:57.750Z,6.30
2023-03-18T00:32:10.991Z,6.30
2023-03-18T00:32:22.744Z,7.00
2023-03-18T00:33:00.938Z,0.00
2023-03-18T00:33:12.781Z,6.20
2023-03-18T00:33:23.548Z,6.10
2023-03-18T00:33:34.329Z,6.00
2023-03-18T00:33:46.792Z,5.90
2023-03-18T00:33:59.310Z,6.00
2023-03-18T00:34:12.540Z,6.20
2023-03-18T00:34:23.412Z,6.20
2023-03-18T00:34:34.228Z,6.40
2023-03-18T00:34:45.022Z,6.40
2023-03-18T00:34:55.868Z,6.40
2023-03-18T00:35:06.709Z,6.40
2023-03-18T00:35:17.498Z,6.70
2023-03-18T00:35:29.258Z,6.30
2023-03-18T00:35:42.194Z,6.70
2023-03-18T00:35:54.920Z,6.50
2023-03-18T00:36:05.747Z,6.70
2023-03-18T00:36:18.032Z,6.50
2023-03-18T00:36:28.830Z,6.50
2023-03-18T00:36:40.571Z,6.40
2023-03-18T00:36:51.409Z,6.40
2023-03-18T00:37:05.207Z,6.30
2023-03-18T00:37:17.228Z,6.50
2023-03-18T00:37:28.031Z,6.50
2023-03-18T00:37:38.817Z,6.30
2023-03-18T00:37:49.639Z,5.80
2023-03-18T00:38:02.138Z,5.90
2023-03-18T00:38:14.568Z,6.40
2023-03-18T00:38:27.023Z,7.10
2023-03-18T00:38:37.826Z,6.90
2023-03-18T00:38:49.595Z,6.60
2023-03-18T00:39:02.539Z,7.00
2023-03-18T00:39:15.039Z,7.00
2023-03-18T00:39:25.839Z,6.70
2023-03-18T00:39:37.599Z,6.50
2023-03-18T00:39:48.309Z,6.40
2023-03-18T00:40:00.048Z,6.40
2023-03-18T00:40:11.788Z,6.70
2023-03-18T00:40:23.504Z,7.20
2023-03-18T00:40:35.226Z,8.00
2023-03-18T00:40:46.049Z,8.10
2023-03-18T00:40:58.537Z,7.00
2023-03-18T00:41:11.586Z,6.80
2023-03-18T00:41:25.370Z,6.40
2023-03-18T00:41:37.097Z,6.80
2023-03-18T00:41:49.809Z,6.80
2023-03-18T00:42:01.578Z,6.80
2023-03-18T00:42:13.319Z,6.80
2023-03-18T00:42:25.548Z,7.20
2023-03-18T00:42:36.346Z,7.00
2023-03-18T00:42:47.131Z,7.30
2023-03-18T00:42:57.992Z,7.20
2023-03-18T00:43:08.750Z,7.80
2023-03-18T00:43:21.259Z,7.70
2023-03-18T00:43:32.069Z,7.90
2023-03-18T00:43:42.870Z,7.60
2023-03-18T00:43:55.112Z,7.60
2023-03-18T00:44:06.833Z,7.20
2023-03-18T00:44:18.617Z,7.00
2023-03-18T00:44:30.904Z,6.60
2023-03-18T00:44:42.709Z,6.50
2023-03-18T00:44:53.515Z,6.80
2023-03-18T00:45:04.332Z,7.20
2023-03-18T00:45:15.136Z,7.50
2023-03-18T00:45:25.921Z,7.30
2023-03-18T00:45:37.651Z,6.90
2023-03-18T00:45:49.360Z,6.40
2023-03-18T00:46:01.772Z,6.80
2023-03-18T00:46:13.605Z,6.70
2023-03-18T00:46:25.414Z,6.70
2023-03-18T00:46:37.182Z,6.20
2023-03-18T00:46:48.964Z,6.60
2023-03-18T00:46:59.786Z,6.70
2023-03-18T00:47:11.634Z,6.70
2023-03-18T00:47:23.638Z,5.40
2023-03-18T00:47:34.460Z,5.40
2023-03-18T00:47:46.212Z,5.60
2023-03-18T00:47:57.932Z,6.00
2023-03-18T00:48:08.692Z,6.40
2023-03-18T00:48:19.494Z,6.60
2023-03-18T00:48:31.950Z,6.70
2023-03-18T00:48:43.682Z,6.20
2023-03-18T00:48:54.470Z,5.90
2023-03-18T00:49:05.249Z,5.80
2023-03-18T00:49:15.983Z,5.90
2023-03-18T00:49:26.802Z,5.60
2023-03-18T00:49:37.671Z,5.50
2023-03-18T00:49:50.192Z,6.30
2023-03-18T00:50:03.472Z,6.50
2023-03-18T00:50:14.222Z,5.90
2023-03-18T00:50:24.993Z,5.40
2023-03-18T00:50:37.484Z,5.40
2023-03-18T00:50:49.962Z,5.30
2023-03-18T00:51:01.681Z,6.00
2023-03-18T00:51:14.405Z,6.40
2023-03-18T00:51:26.662Z,6.20
2023-03-18T00:51:39.852Z,5.80
2023-03-18T00:51:53.103Z,5.70
2023-03-18T00:52:03.872Z,5.70
2023-03-18T00:52:14.715Z,6.00
2023-03-18T00:52:26.910Z,6.10
2023-03-18T00:52:37.746Z,5.60
2023-03-18T00:52:49.453Z,5.80
2023-03-18T00:53:01.968Z,5.60
2023-03-18T00:53:12.722Z,5.50
2023-03-18T00:53:23.482Z,5.50
2023-03-18T00:53:35.446Z,5.70
2023-03-18T00:53:46.217Z,6.10
2023-03-18T00:53:58.760Z,6.20
2023-03-18T00:54:10.568Z,5.90
2023-03-18T00:54:23.053Z,5.90
2023-03-18T00:54:35.034Z,5.40
2023-03-18T00:54:46.732Z,5.50
2023-03-18T00:54:58.477Z,5.60
2023-03-18T00:55:11.015Z,6.00
2023-03-18T00:55:22.852Z,5.50
2023-03-18T00:55:35.885Z,5.10
2023-03-18T00:55:48.364Z,5.40
2023-03-18T00:56:02.083Z,5.40
2023-03-18T00:56:12.853Z,5.00
2023-03-18T00:56:23.653Z,5.10
2023-03-18T00:56:36.072Z,4.90
2023-03-18T00:56:46.868Z,5.20
2023-03-18T00:56:59.368Z,5.50
2023-03-18T00:57:11.126Z,5.40
2023-03-18T00:57:24.336Z,5.50
2023-03-18T00:57:37.293Z,5.30
2023-03-18T00:57:50.254Z,5.60
2023-03-18T00:58:02.693Z,5.50
2023-03-18T00:58:15.178Z,5.20
2023-03-18T00:58:26.924Z,5.60
2023-03-18T00:58:37.694Z,6.20
2023-03-18T00:58:49.421Z,6.20
2023-03-18T00:59:01.174Z,6.30
2023-03-18T00:59:14.385Z,6.00
2023-03-18T00:59:26.144Z,6.20
2023-03-18T00:59:39.887Z,6.80
2023-03-18T00:59:52.093Z,6.60
2023-03-18T01:00:02.874Z,6.60
2023-03-18T01:00:13.675Z,6.00
2023-03-18T01:00:25.453Z,5.60
2023-03-18T01:00:37.239Z,5.60
2023-03-18T01:00:49.059Z,6.20
2023-03-18T01:01:00.886Z,6.30
2023-03-18T01:01:13.130Z,5.90
2023-03-18T01:01:24.000Z,5.70
2023-03-18T01:01:34.967Z,5.80
2023-03-18T01:01:45.793Z,5.90
2023-03-18T01:01:57.590Z,6.10
2023-03-18T01:02:08.499Z,5.60
2023-03-18T01:02:19.421Z,5.40
2023-03-18T01:02:31.282Z,5.40
2023-03-18T01:02:42.070Z,5.10
2023-03-18T01:02:53.730Z,5.60
2023-03-18T01:03:05.983Z,5.90
2023-03-18T01:03:17.964Z,5.70
2023-03-18T01:03:28.856Z,5.30
2023-03-18T01:03:41.287Z,5.20
2023-03-18T01:03:52.082Z,5.60
2023-03-18T01:04:04.660Z,5.60
2023-03-18T01:04:15.415Z,5.60
2023-03-18T01:04:26.224Z,5.10
2023-03-18T01:04:38.757Z,5.20
2023-03-18T01:04:50.516Z,5.00
2023-03-18T01:05:02.262Z,4.90
2023-03-18T01:05:14.773Z,5.10
2023-03-18T01:05:25.589Z,5.10
2023-03-18T01:05:36.439Z,5.00
2023-03-18T01:05:48.227Z,5.10
2023-03-18T01:06:00.083Z,5.10
2023-03-18T01:06:11.987Z,4.90
2023-03-18T01:06:23.781Z,4.80
2023-03-18T01:06:34.641Z,4.80
2023-03-18T01:06:46.496Z,5.00
2023-03-18T01:06:57.408Z,5.10
2023-03-18T01:07:09.178Z,5.00
2023-03-18T01:07:19.967Z,4.60
2023-03-18T01:07:31.736Z,4.80
2023-03-18T01:07:44.261Z,5.00
2023-03-18T01:07:55.009Z,4.90
2023-03-18T01:08:05.818Z,5.20
2023-03-18T01:08:16.706Z,5.40
2023-03-18T01:08:27.517Z,5.30
2023-03-18T01:08:38.371Z,5.00
2023-03-18T01:08:49.187Z,5.20
2023-03-18T01:09:00.021Z,4.70
2023-03-18T01:09:10.776Z,4.70
2023-03-18T01:09:21.599Z,4.80
2023-03-18T01:09:33.852Z,4.80
2023-03-18T01:09:45.610Z,5.00
2023-03-18T01:09:56.399Z,4.80
2023-03-18T01:10:07.220Z,4.90
2023-03-18T01:10:17.979Z,4.90
2023-03-18T01:10:28.836Z,4.80
2023-03-18T01:10:41.327Z,4.90
2023-03-18T01:10:52.110Z,5.00
2023-03-18T01:11:05.327Z,5.20
2023-03-18T01:11:16.181Z,5.40
2023-03-18T01:11:29.836Z,5.30
2023-03-18T01:11:42.309Z,5.00
2023-03-18T01:11:54.074Z,5.00
2023-03-18T01:12:04.830Z,5.10
2023-03-18T01:12:16.833Z,5.60
2023-03-18T01:12:27.664Z,6.30
2023-03-18T01:12:39.691Z,6.60
2023-03-18T01:12:50.480Z,6.30
2023-03-18T01:13:01.281Z,5.70
2023-03-18T01:13:12.191Z,5.60
2023-03-18T01:13:22.941Z,5.40
2023-03-18T01:13:33.748Z,5.30
2023-03-18T01:13:44.600Z,5.60
2023-03-18T01:13:55.403Z,5.90
2023-03-18T01:14:07.100Z,5.90
2023-03-18T01:14:17.933Z,5.90
2023-03-18T01:14:28.870Z,5.70
2023-03-18T01:14:39.703Z,5.50
2023-03-18T01:14:50.499Z,5.30
2023-03-18T01:15:02.299Z,5.10
2023-03-18T01:15:13.169Z,5.40
2023-03-18T01:15:25.658Z,5.60
2023-03-18T01:15:37.396Z,5.50
2023-03-18T01:15:48.233Z,5.30
2023-03-18T01:15:59.045Z,5.40
2023-03-18T01:16:09.914Z,5.40
2023-03-18T01:16:21.841Z,5.10
2023-03-18T01:16:32.742Z,5.00
2023-03-18T01:16:43.591Z,5.00
2023-03-18T01:16:55.411Z,5.50
2023-03-18T01:17:06.221Z,5.80
2023-03-18T01:17:18.219Z,5.50
2023-03-18T01:17:29.034Z,5.20
2023-03-18T01:17:39.837Z,5.10
2023-03-18T01:17:50.647Z,5.50
2023-03-18T01:18:03.081Z,5.40
2023-03-18T01:18:15.533Z,5.80
2023-03-18T01:18:26.325Z,5.80
2023-03-18T01:18:38.129Z,5.60
2023-03-18T01:18:49.004Z,5.30
2023-03-18T01:19:01.226Z,5.20
2023-03-18T01:19:12.031Z,5.20
2023-03-18T01:19:22.831Z,5.20
2023-03-18T01:19:35.333Z,5.60
2023-03-18T01:19:46.128Z,5.90
2023-03-18T01:19:58.602Z,6.00
2023-03-18T01:20:09.407Z,6.30
2023-03-18T01:20:20.227Z,6.00
2023-03-18T01:20:31.291Z,6.00
2023-03-18T01:20:43.253Z,6.00
2023-03-18T01:20:55.734Z,5.80
2023-03-18T01:21:06.493Z,5.50
2023-03-18T01:21:18.269Z,5.50
2023-03-18T01:21:30.061Z,5.50
2023-03-18T01:21:42.064Z,5.70
2023-03-18T01:21:52.837Z,5.60
2023-03-18T01:22:05.894Z,5.50
2023-03-18T01:22:18.376Z,4.90
2023-03-18T01:22:29.247Z,4.90
2023-03-18T01:22:41.703Z,4.70
2023-03-18T01:22:52.613Z,5.10
2023-03-18T01:23:05.832Z,5.50
2023-03-18T01:23:17.652Z,5.40
2023-03-18T01:23:30.159Z,5.70
2023-03-18T01:23:41.884Z,5.60
2023-03-18T01:23:54.641Z,5.10
2023-03-18T01:24:05.465Z,5.60
2023-03-18T01:24:16.293Z,5.60
2023-03-18T01:24:29.034Z,5.50
2023-03-18T01:24:39.851Z,5.40
2023-03-18T01:24:50.715Z,5.90
2023-03-18T01:25:02.514Z,5.90
2023-03-18T01:25:13.346Z,5.70
2023-03-18T01:25:26.121Z,6.00
2023-03-18T01:25:38.712Z,5.80
2023-03-18T01:25:50.964Z,5.50
2023-03-18T01:26:01.745Z,5.60
2023-03-18T01:26:14.990Z,5.60
2023-03-18T01:26:27.462Z,5.70
2023-03-18T01:26:39.336Z,5.20
2023-03-18T01:26:52.108Z,5.50
2023-03-18T01:27:04.665Z,6.50
2023-03-18T01:27:16.915Z,7.30
2023-03-18T01:27:29.485Z,6.40
2023-03-18T01:27:42.731Z,5.70
2023-03-18T01:27:55.011Z,6.40
2023-03-18T01:28:05.813Z,6.60
2023-03-18T01:28:16.688Z,6.60
2023-03-18T01:28:28.944Z,6.50
2023-03-18T01:28:39.802Z,6.40
2023-03-18T01:28:50.685Z,5.80
2023-03-18T01:29:03.245Z,6.00
2023-03-18T01:29:15.715Z,6.20
2023-03-18T01:29:29.591Z,6.40
2023-03-18T01:29:40.394Z,6.20
2023-03-18T01:29:51.204Z,6.00
2023-03-18T01:30:03.472Z,5.80
2023-03-18T01:30:15.481Z,5.60
2023-03-18T01:30:27.381Z,5.80
2023-03-18T01:30:39.846Z,5.90
2023-03-18T01:30:52.335Z,6.00
2023-03-18T01:31:04.102Z,6.10
2023-03-18T01:31:15.901Z,6.10
2023-03-18T01:31:28.409Z,6.30
2023-03-18T01:31:40.200Z,6.40
2023-03-18T01:31:52.842Z,6.20
2023-03-18T01:32:04.624Z,5.80
2023-03-18T01:32:16.908Z,5.80
2023-03-18T01:32:27.785Z,6.20
2023-03-18T01:32:38.705Z,6.10
2023-03-18T01:32:51.233Z,6.20
2023-03-18T01:33:03.566Z,6.20
2023-03-18T01:33:16.857Z,6.40
2023-03-18T01:33:27.740Z,6.30
2023-03-18T01:33:38.603Z,6.40
2023-03-18T01:33:49.489Z,6.50
2023-03-18T01:34:01.199Z,6.40
2023-03-18T01:34:12.019Z,6.60
2023-03-18T01:34:22.836Z,6.40
2023-03-18T01:34:33.609Z,6.20
2023-03-18T01:34:45.373Z,6.10
2023-03-18T01:34:56.226Z,6.00
2023-03-18T01:35:07.028Z,6.20
2023-03-18T01:35:17.827Z,6.10
2023-03-18T01:35:28.697Z,6.00
2023-03-18T01:35:41.033Z,5.90
2023-03-18T01:35:52.818Z,6.30
2023-03-18T01:36:05.813Z,6.60
2023-03-18T01:36:16.648Z,6.70
2023-03-18T01:36:27.496Z,6.40
2023-03-18T01:36:39.811Z,6.20
2023-03-18T01:36:50.606Z,6.00
2023-03-18T01:37:02.428Z,6.60
2023-03-18T01:37:13.224Z,6.60
2023-03-18T01:37:50.676Z,0.00
2023-03-18T01:38:25.098Z,0.00
2023-03-18T01:38:35.868Z,5.80
2023-03-18T01:38:46.657Z,5.90
2023-03-18T01:38:58.428Z,5.70
2023-03-18T01:39:10.221Z,6.00
2023-03-18T01:39:21.911Z,6.50
2023-03-18T01:39:32.677Z,6.80
2023-03-18T01:39:44.467Z,6.70
2023-03-18T01:39:55.269Z,6.70
2023-03-18T01:40:07.143Z,6.20
2023-03-18T01:40:17.927Z,6.10
2023-03-18T01:40:28.887Z,6.00
2023-03-18T01:40:39.681Z,5.80
2023-03-18T01:40:52.148Z,5.90
2023-03-18T01:41:02.903Z,6.20
2023-03-18T01:41:13.751Z,6.70
2023-03-18T01:41:24.772Z,6.70
2023-03-18T01:41:35.590Z,6.50
2023-03-18T01:41:47.839Z,6.80
2023-03-18T01:41:59.630Z,7.00
2023-03-18T01:42:12.830Z,6.70
2023-03-18T01:42:24.547Z,6.80
2023-03-18T01:42:35.297Z,6.20
2023-03-18T01:42:46.070Z,6.20
2023-03-18T01:42:57.139Z,6.80
2023-03-18T01:43:07.953Z,7.30
2023-03-18T01:43:20.388Z,6.60
2023-03-18T01:43:32.639Z,6.60
2023-03-18T01:43:44.860Z,6.50
2023-03-18T01:43:57.362Z,6.40
2023-03-18T01:44:09.647Z,6.40
2023-03-18T01:44:21.413Z,6.40
2023-03-18T01:44:33.168Z,6.80
2023-03-18T01:44:44.067Z,6.80
2023-03-18T01:44:54.909Z,6.50
2023-03-18T01:45:05.719Z,6.30
2023-03-18T01:45:17.555Z,6.10
2023-03-18T01:45:28.390Z,6.80
2023-03-18T01:45:39.358Z,7.00
2023-03-18T01:45:50.207Z,6.70
2023-03-18T01:46:02.075Z,6.30
2023-03-18T01:46:13.988Z,5.90
2023-03-18T01:46:25.962Z,6.10
2023-03-18T01:46:38.474Z,6.20
2023-03-18T01:46:49.350Z,6.20
2023-03-18T01:47:01.129Z,6.10
2023-03-18T01:47:11.936Z,6.10
2023-03-18T01:47:24.397Z,6.30
2023-03-18T01:47:35.165Z,6.60
2023-03-18T01:47:46.928Z,6.80
2023-03-18T01:47:59.176Z,6.70
2023-03-18T01:48:11.660Z,6.70
2023-03-18T01:48:23.464Z,6.50
2023-03-18T01:48:35.968Z,6.70
2023-03-18T01:48:47.739Z,6.70
2023-03-18T01:48:58.593Z,6.90
2023-03-18T01:49:09.379Z,6.60
2023-03-18T01:49:20.198Z,6.60
2023-03-18T01:49:32.430Z,6.70
2023-03-18T01:49:43.230Z,6.70
2023-03-18T01:49:55.819Z,6.70
2023-03-18T01:50:07.569Z,7.10
2023-03-18T01:50:18.339Z,6.60
2023-03-18T01:50:29.447Z,6.20
2023-03-18T01:50:42.358Z,6.30
2023-03-18T01:50:53.161Z,6.90
2023-03-18T01:51:04.911Z,7.40
2023-03-18T01:51:17.351Z,7.60
2023-03-18T01:51:29.611Z,7.40
2023-03-18T01:51:41.351Z,7.10
2023-03-18T01:51:53.199Z,7.10
2023-03-18T01:52:05.647Z,6.80
2023-03-18T01:52:17.992Z,7.30
2023-03-18T01:52:35.153Z,7.30
2023-03-18T01:52:48.383Z,7.30
2023-03-18T01:53:00.731Z,7.30
2023-03-18T01:53:11.595Z,7.10
2023-03-18T01:53:23.393Z,7.10
2023-03-18T01:53:34.176Z,7.40
2023-03-18T01:53:45.092Z,7.40
2023-03-18T01:53:57.327Z,6.90
2023-03-18T01:54:09.810Z,6.60
2023-03-18T01:54:20.622Z,6.80
2023-03-18T01:54:31.469Z,7.50
2023-03-18T01:54:43.471Z,7.50
2023-03-18T01:54:54.264Z,7.70
2023-03-18T01:55:06.763Z,7.30
2023-03-18T01:55:17.569Z,7.30
2023-03-18T01:55:28.371Z,7.20
2023-03-18T01:55:40.118Z,7.20
2023-03-18T01:55:51.964Z,7.30
2023-03-18T01:56:02.743Z,7.70
2023-03-18T01:56:14.476Z,7.30
2023-03-18T01:56:26.213Z,7.30
2023-03-18T01:56:37.044Z,7.90
2023-03-18T01:56:48.791Z,7.70
2023-03-18T01:57:00.543Z,7.30
2023-03-18T01:57:12.588Z,7.10
2023-03-18T01:57:25.039Z,7.00
2023-03-18T01:57:36.043Z,7.00
2023-03-18T01:57:46.818Z,7.00
2023-03-18T01:57:58.560Z,7.30
2023-03-18T01:58:10.313Z,7.30
2023-03-18T01:58:21.135Z,7.70
2023-03-18T01:58:31.901Z,8.00
2023-03-18T01:58:45.213Z,7.80
2023-03-18T01:58:58.253Z,7.80
2023-03-18T01:59:09.978Z,8.10
2023-03-18T01:59:21.710Z,7.90
2023-03-18T01:59:32.562Z,7.70
2023-03-18T01:59:45.164Z,7.60
2023-03-18T01:59:57.640Z,7.40
2023-03-18T02:00:08.412Z,7.30
2023-03-18T02:00:20.142Z,7.40
2023-03-18T02:00:31.110Z,7.40
2023-03-18T02:00:43.628Z,7.20
2023-03-18T02:00:55.403Z,7.30
2023-03-18T02:01:06.216Z,7.70
2023-03-18T02:01:17.154Z,7.70
2023-03-18T02:01:29.027Z,7.80
2023-03-18T02:01:39.804Z,7.30
2023-03-18T02:01:50.621Z,7.50
2023-03-18T02:02:02.350Z,7.70
2023-03-18T02:02:14.144Z,7.60
2023-03-18T02:02:24.894Z,7.20
2023-03-18T02:02:35.690Z,7.40
2023-03-18T02:02:47.402Z,7.80
2023-03-18T02:02:59.911Z,8.60
2023-03-18T02:03:11.670Z,8.70
2023-03-18T02:03:23.952Z,8.40
2023-03-18T02:03:34.806Z,7.50
2023-03-18T02:04:10.257Z,0.00
2023-03-18T02:04:22.738Z,6.70
2023-03-18T02:04:34.498Z,7.10
2023-03-18T02:04:46.269Z,7.40
2023-03-18T02:04:57.060Z,7.70
2023-03-18T02:05:07.857Z,7.20
2023-03-18T02:05:20.341Z,6.90
2023-03-18T02:05:31.105Z,6.80
2023-03-18T02:05:42.866Z,6.80
2023-03-18T02:05:53.618Z,7.10
2023-03-18T02:06:04.410Z,7.60
2023-03-18T02:06:15.282Z,7.90
2023-03-18T02:06:26.108Z,7.80
2023-03-18T02:06:36.920Z,7.40
2023-03-18T02:06:49.658Z,7.30
2023-03-18T02:07:01.417Z,7.20
2023-03-18T02:07:16.097Z,6.60
2023-03-18T02:07:29.407Z,6.80
2023-03-18T02:07:43.668Z,6.70
2023-03-18T02:07:56.070Z,7.10
2023-03-18T02:08:08.582Z,7.20
2023-03-18T02:08:19.361Z,6.70
2023-03-18T02:08:30.147Z,6.80
2023-03-18T02:08:41.941Z,6.80
2023-03-18T02:08:52.706Z,6.90
2023-03-18T02:09:05.441Z,6.90
2023-03-18T02:09:18.098Z,7.00
2023-03-18T02:09:31.116Z,7.40
2023-03-18T02:09:43.961Z,7.70
2023-03-18T02:09:55.790Z,7.00
2023-03-18T02:10:23.172Z,7.90
2023-03-18T02:10:34.223Z,7.60
2023-03-18T02:10:46.763Z,7.50
2023-03-18T02:10:57.522Z,7.60
2023-03-18T02:11:09.992Z,7.50
2023-03-18T02:11:22.486Z,7.80
2023-03-18T02:11:34.697Z,7.80
2023-03-18T02:11:46.480Z,7.40
2023-03-18T02:12:20.917Z,0.00
2023-03-18T02:12:31.700Z,7.00
2023-03-18T02:12:42.439Z,6.90
2023-03-18T02:12:53.222Z,6.90
2023-03-18T02:13:05.509Z,7.30
2023-03-18T02:13:17.991Z,7.20
2023-03-18T02:13:30.987Z,6.70
2023-03-18T02:13:43.337Z,6.50
2023-03-18T02:13:55.748Z,6.80
2023-03-18T02:14:07.452Z,6.80
2023-03-18T02:14:18.209Z,7.00
2023-03-18T02:14:30.550Z,7.10
2023-03-18T02:14:42.301Z,7.30
2023-03-18T02:14:54.330Z,6.90
2023-03-18T02:15:07.324Z,6.90
2023-03-18T02:15:18.159Z,6.90
2023-03-18T02:15:28.963Z,7.60
2023-03-18T02:15:39.767Z,8.10
2023-03-18T02:15:52.780Z,8.20
2023-03-18T02:16:04.517Z,7.70
2023-03-18T02:16:15.294Z,7.50
2023-03-18T02:16:26.111Z,7.40
2023-03-18T02:16:37.855Z,7.80
2023-03-18T02:16:48.782Z,7.70
2023-03-18T02:16:59.590Z,7.50
2023-03-18T02:17:11.300Z,7.40
2023-03-18T02:17:23.835Z,7.40
2023-03-18T02:17:35.640Z,7.20
2023-03-18T02:17:46.401Z,7.30
2023-03-18T02:17:59.674Z,7.30
2023-03-18T02:18:12.725Z,7.10
2023-03-18T02:18:24.734Z,7.30
2023-03-18T02:18:35.458Z,7.50
2023-03-18T02:18:47.910Z,7.60
2023-03-18T02:18:58.731Z,7.40
2023-03-18T02:19:10.463Z,7.80
2023-03-18T02:19:23.371Z,7.60
2023-03-18T02:19:35.343Z,7.40
2023-03-18T02:19:46.180Z,7.20
2023-03-18T02:19:57.035Z,7.30
2023-03-18T02:20:08.831Z,7.50
2023-03-18T02:20:21.287Z,7.60
2023-03-18T02:20:32.302Z,7.70
2023-03-18T02:20:43.346Z,7.90
2023-03-18T02:20:54.109Z,8.30
2023-03-18T02:21:04.893Z,8.00
2023-03-18T02:21:17.372Z,7.80
2023-03-18T02:21:29.217Z,7.80
2023-03-18T02:21:40.953Z,8.00
2023-03-18T02:21:51.781Z,8.00
2023-03-18T02:22:02.602Z,7.90
2023-03-18T02:22:14.341Z,7.70
2023-03-18T02:22:26.123Z,7.70
2023-03-18T02:22:36.903Z,8.00
2023-03-18T02:22:47.691Z,8.60
2023-03-18T02:22:59.954Z,8.10
2023-03-18T02:23:10.773Z,8.40
2023-03-18T02:23:21.613Z,8.30
2023-03-18T02:23:35.847Z,8.60
2023-03-18T02:23:47.610Z,7.80
2023-03-18T02:24:01.066Z,7.40
2023-03-18T02:24:11.822Z,7.40
2023-03-18T02:24:23.535Z,7.20
2023-03-18T02:24:35.521Z,6.80
2023-03-18T02:24:47.261Z,7.00
2023-03-18T02:24:59.516Z,7.50
2023-03-18T02:25:11.976Z,7.30
2023-03-18T02:25:22.747Z,7.30
2023-03-18T02:25:33.526Z,7.20
2023-03-18T02:25:45.304Z,7.40
2023-03-18T02:25:56.089Z,7.20
2023-03-18T02:26:06.828Z,7.30
2023-03-18T02:26:17.560Z,7.40
2023-03-18T02:26:29.385Z,7.20
2023-03-18T02:26:40.176Z,7.10
2023-03-18T02:26:53.396Z,7.10
2023-03-18T02:27:05.140Z,7.20
2023-03-18T02:27:15.912Z,6.90
2023-03-18T02:27:28.392Z,7.40
2023-03-18T02:27:39.132Z,7.70
2023-03-18T02:27:51.371Z,8.00
2023-03-18T02:28:03.173Z,7.70
2023-03-18T02:28:14.047Z,7.70
2023-03-18T02:28:25.776Z,7.50
2023-03-18T02:28:38.074Z,7.20
2023-03-18T02:28:49.844Z,7.60
2023-03-18T02:29:02.093Z,7.80
2023-03-18T02:29:14.574Z,7.70
2023-03-18T02:29:25.413Z,8.10
2023-03-18T02:29:36.143Z,8.00
2023-03-18T02:29:47.928Z,8.00
2023-03-18T02:30:00.513Z,7.40
2023-03-18T02:30:12.273Z,7.70
2023-03-18T02:30:24.005Z,8.20
2023-03-18T02:30:35.167Z,7.80
2023-03-18T02:30:47.073Z,7.80
2023-03-18T02:30:59.742Z,7.50
2023-03-18T02:31:10.627Z,7.70
2023-03-18T02:31:22.960Z,7.50
2023-03-18T02:31:33.827Z,7.20
2023-03-18T02:31:46.360Z,7.30
2023-03-18T02:31:58.886Z,8.10
2023-03-18T02:32:09.664Z,8.60
2023-03-18T02:32:20.484Z,8.20
2023-03-18T02:32:32.246Z,8.30
2023-03-18T02:32:44.719Z,8.20
2023-03-18T02:32:55.551Z,7.50
2023-03-18T02:33:06.382Z,7.80
2023-03-18T02:33:20.156Z,7.60
2023-03-18T02:33:31.893Z,7.10
2023-03-18T02:33:44.703Z,7.10
2023-03-18T02:33:57.195Z,7.40
2023-03-18T02:34:09.465Z,7.80
2023-03-18T02:34:21.689Z,8.10
2023-03-18T02:34:33.484Z,8.30
2023-03-18T02:34:45.927Z,7.90
2023-03-18T02:34:56.705Z,8.30
2023-03-18T02:35:08.923Z,7.70
2023-03-18T02:35:21.651Z,7.30
2023-03-18T02:35:32.473Z,7.20
2023-03-18T02:35:44.819Z,7.30
2023-03-18T02:35:57.101Z,7.80
2023-03-18T02:36:08.897Z,7.70
2023-03-18T02:36:20.629Z,7.40
2023-03-18T02:36:32.408Z,7.40
2023-03-18T02:36:43.194Z,7.70
2023-03-18T02:36:53.934Z,7.80
2023-03-18T02:37:06.445Z,7.80
2023-03-18T02:37:17.270Z,7.70
2023-03-18T02:37:29.012Z,7.50
2023-03-18T02:37:41.229Z,7.60